sensor_id;sensor_type;location;lat;lon;timestamp;P1;durP1;ratioP1;P2;durP2;ratioP2
67819;SDS011;54618;52.018;5.576;2023-03-12T00:01:18;4.93;;;2.53;;
67819;SDS011;54618;52.018;5.576;2023-03-12T00:03:45;6.15;;;2.50;;
67819;SDS011;54618;52.018;5.576;2023-03-12T00:06:11;6.90;;;2.67;;
67819;SDS011;54618;52.018;5.576;2023-03-12T00:08:38;4.80;;;2.50;;
67819;SDS011;54618;52.018;5.576;2023-03-12T00:11:14;5.53;;;2.47;;
67819;SDS011;54618;52.018;5.576;2023-03-12T00:13:42;6.13;;;2.45;;
67819;SDS011;54618;52.018;5.576;2023-03-12T00:16:09;4.90;;;2.60;;
67819;SDS011;54618;52.018;5.576;2023-03-12T00:18:37;5.47;;;2.40;;
67819;SDS011;54618;52.018;5.576;2023-03-12T00:21:03;5.50;;;2.33;;
67819;SDS011;54618;52.018;5.576;2023-03-12T00:23:30;4.30;;;2.30;;
67819;SDS011;54618;52.018;5.576;2023-03-12T00:26:06;4.82;;;2.33;;
67819;SDS011;54618;52.018;5.576;2023-03-12T00:28:34;6.03;;;2.80;;
67819;SDS011;54618;52.018;5.576;2023-03-12T00:31:00;4.53;;;2.30;;
67819;SDS011;54618;52.018;5.576;2023-03-12T00:33:27;4.38;;;2.20;;
67819;SDS011;54618;52.018;5.576;2023-03-12T00:35:53;5.03;;;2.40;;
67819;SDS011;54618;52.018;5.576;2023-03-12T00:38:20;6.63;;;2.38;;
67819;SDS011;54618;52.018;5.576;2023-03-12T00:40:46;4.82;;;2.50;;
67819;SDS011;54618;52.018;5.576;2023-03-12T00:43:12;4.57;;;2.38;;
67819;SDS011;54618;52.018;5.576;2023-03-12T00:45:38;4.10;;;2.17;;
67819;SDS011;54618;52.018;5.576;2023-03-12T00:48:04;4.35;;;2.30;;
67819;SDS011;54618;52.018;5.576;2023-03-12T00:50:30;4.57;;;2.30;;
67819;SDS011;54618;52.018;5.576;2023-03-12T00:52:55;4.80;;;2.40;;
67819;SDS011;54618;52.018;5.576;2023-03-12T00:55:21;4.35;;;2.10;;
67819;SDS011;54618;52.018;5.576;2023-03-12T00:57:46;3.80;;;2.22;;
67819;SDS011;54618;52.018;5.576;2023-03-12T01:00:12;4.53;;;2.05;;
67819;SDS011;54618;52.018;5.576;2023-03-12T01:02:39;4.53;;;2.20;;
67819;SDS011;54618;52.018;5.576;2023-03-12T01:05:06;5.15;;;2.22;;
67819;SDS011;54618;52.018;5.576;2023-03-12T01:07:34;3.97;;;2.20;;
67819;SDS011;54618;52.018;5.576;2023-03-12T01:10:00;5.53;;;2.50;;
67819;SDS011;54618;52.018;5.576;2023-03-12T01:12:25;3.85;;;2.15;;
67819;SDS011;54618;52.018;5.576;2023-03-12T01:14:51;5.22;;;2.20;;
67819;SDS011;54618;52.018;5.576;2023-03-12T01:17:17;5.47;;;2.33;;
67819;SDS011;54618;52.018;5.576;2023-03-12T01:19:42;3.60;;;2.10;;
67819;SDS011;54618;52.018;5.576;2023-03-12T01:22:08;3.92;;;2.20;;
67819;SDS011;54618;52.018;5.576;2023-03-12T01:24:34;4.28;;;2.00;;
67819;SDS011;54618;52.018;5.576;2023-03-12T01:26:59;5.22;;;2.20;;
67819;SDS011;54618;52.018;5.576;2023-03-12T01:29:25;4.30;;;2.30;;
67819;SDS011;54618;52.018;5.576;2023-03-12T01:31:50;3.58;;;1.80;;
67819;SDS011;54618;52.018;5.576;2023-03-12T01:34:16;4.40;;;2.20;;
67819;SDS011;54618;52.018;5.576;2023-03-12T01:36:42;4.32;;;1.90;;
67819;SDS011;54618;52.018;5.576;2023-03-12T01:39:09;3.85;;;2.28;;
67819;SDS011;54618;52.018;5.576;2023-03-12T01:41:34;3.97;;;2.30;;
67819;SDS011;54618;52.018;5.576;2023-03-12T01:44:01;5.35;;;2.53;;
67819;SDS011;54618;52.018;5.576;2023-03-12T01:46:29;4.07;;;1.98;;
67819;SDS011;54618;52.018;5.576;2023-03-12T01:51:26;4.28;;;2.10;;
67819;SDS011;54618;52.018;5.576;2023-03-12T01:53:55;5.27;;;2.07;;
67819;SDS011;54618;52.018;5.576;2023-03-12T01:56:24;3.05;;;1.90;;
67819;SDS011;54618;52.018;5.576;2023-03-12T01:58:54;4.87;;;2.17;;
67819;SDS011;54618;52.018;5.576;2023-03-12T02:01:24;4.00;;;1.90;;
67819;SDS011;54618;52.018;5.576;2023-03-12T02:03:51;3.60;;;2.00;;
67819;SDS011;54618;52.018;5.576;2023-03-12T02:06:18;4.00;;;2.00;;
67819;SDS011;54618;52.018;5.576;2023-03-12T02:08:49;4.10;;;2.15;;
67819;SDS011;54618;52.018;5.576;2023-03-12T02:11:15;3.38;;;2.03;;
67819;SDS011;54618;52.018;5.576;2023-03-12T02:13:40;3.85;;;2.10;;
67819;SDS011;54618;52.018;5.576;2023-03-12T02:16:06;3.30;;;1.85;;
67819;SDS011;54618;52.018;5.576;2023-03-12T02:18:34;4.13;;;2.10;;
67819;SDS011;54618;52.018;5.576;2023-03-12T02:26:28;4.03;;;2.00;;
67819;SDS011;54618;52.018;5.576;2023-03-12T02:28:54;3.58;;;1.77;;
67819;SDS011;54618;52.018;5.576;2023-03-12T02:31:21;3.50;;;1.90;;
67819;SDS011;54618;52.018;5.576;2023-03-12T02:36:17;3.30;;;1.70;;
67819;SDS011;54618;52.018;5.576;2023-03-12T02:44:30;4.68;;;1.85;;
67819;SDS011;54618;52.018;5.576;2023-03-12T02:46:42;3.42;;;1.80;;
67819;SDS011;54618;52.018;5.576;2023-03-12T02:49:10;3.83;;;1.55;;
67819;SDS011;54618;52.018;5.576;2023-03-12T02:51:39;3.75;;;1.77;;
67819;SDS011;54618;52.018;5.576;2023-03-12T02:54:06;4.22;;;1.90;;
67819;SDS011;54618;52.018;5.576;2023-03-12T02:56:32;3.88;;;1.80;;
67819;SDS011;54618;52.018;5.576;2023-03-12T02:58:57;3.00;;;1.45;;
67819;SDS011;54618;52.018;5.576;2023-03-12T03:01:24;3.25;;;1.70;;
67819;SDS011;54618;52.018;5.576;2023-03-12T03:03:50;2.85;;;1.70;;
67819;SDS011;54618;52.018;5.576;2023-03-12T03:06:15;3.05;;;1.70;;
67819;SDS011;54618;52.018;5.576;2023-03-12T03:08:41;2.63;;;1.45;;
67819;SDS011;54618;52.018;5.576;2023-03-12T03:11:07;3.47;;;1.50;;
67819;SDS011;54618;52.018;5.576;2023-03-12T03:13:34;2.67;;;1.60;;
67819;SDS011;54618;52.018;5.576;2023-03-12T03:16:00;2.40;;;1.50;;
67819;SDS011;54618;52.018;5.576;2023-03-12T03:18:26;2.90;;;1.60;;
67819;SDS011;54618;52.018;5.576;2023-03-12T03:21:03;3.72;;;1.88;;
67819;SDS011;54618;52.018;5.576;2023-03-12T03:23:31;3.40;;;1.65;;
67819;SDS011;54618;52.018;5.576;2023-03-12T03:25:57;3.00;;;1.55;;
67819;SDS011;54618;52.018;5.576;2023-03-12T03:28:24;2.88;;;1.40;;
67819;SDS011;54618;52.018;5.576;2023-03-12T03:30:51;3.65;;;1.63;;
67819;SDS011;54618;52.018;5.576;2023-03-12T03:33:17;2.05;;;1.30;;
67819;SDS011;54618;52.018;5.576;2023-03-12T03:35:43;3.15;;;1.55;;
67819;SDS011;54618;52.018;5.576;2023-03-12T03:38:09;3.38;;;1.52;;
67819;SDS011;54618;52.018;5.576;2023-03-12T03:40:34;2.33;;;1.30;;
67819;SDS011;54618;52.018;5.576;2023-03-12T03:43:00;3.20;;;1.50;;
67819;SDS011;54618;52.018;5.576;2023-03-12T03:45:25;3.72;;;1.60;;
67819;SDS011;54618;52.018;5.576;2023-03-12T03:47:51;2.75;;;1.60;;
67819;SDS011;54618;52.018;5.576;2023-03-12T03:50:17;2.80;;;1.30;;
67819;SDS011;54618;52.018;5.576;2023-03-12T03:52:42;2.35;;;1.20;;
67819;SDS011;54618;52.018;5.576;2023-03-12T03:55:08;3.35;;;1.60;;
67819;SDS011;54618;52.018;5.576;2023-03-12T03:57:34;2.50;;;1.50;;
67819;SDS011;54618;52.018;5.576;2023-03-12T03:59:59;2.85;;;1.33;;
67819;SDS011;54618;52.018;5.576;2023-03-12T04:02:25;2.17;;;1.20;;
67819;SDS011;54618;52.018;5.576;2023-03-12T04:04:55;3.70;;;1.40;;
67819;SDS011;54618;52.018;5.576;2023-03-12T04:07:23;2.45;;;1.45;;
67819;SDS011;54618;52.018;5.576;2023-03-12T04:09:48;3.13;;;1.60;;
67819;SDS011;54618;52.018;5.576;2023-03-12T04:12:15;2.83;;;1.55;;
67819;SDS011;54618;52.018;5.576;2023-03-12T04:14:41;4.18;;;1.30;;
67819;SDS011;54618;52.018;5.576;2023-03-12T04:17:08;2.20;;;1.40;;
67819;SDS011;54618;52.018;5.576;2023-03-12T04:19:34;2.40;;;1.25;;
67819;SDS011;54618;52.018;5.576;2023-03-12T04:22:00;2.88;;;1.45;;
67819;SDS011;54618;52.018;5.576;2023-03-12T04:24:25;2.85;;;1.40;;
67819;SDS011;54618;52.018;5.576;2023-03-12T04:26:51;3.17;;;1.48;;
67819;SDS011;54618;52.018;5.576;2023-03-12T04:29:17;2.70;;;1.27;;
67819;SDS011;54618;52.018;5.576;2023-03-12T04:31:43;2.80;;;1.50;;
67819;SDS011;54618;52.018;5.576;2023-03-12T04:34:09;1.83;;;1.20;;
67819;SDS011;54618;52.018;5.576;2023-03-12T04:36:36;3.15;;;1.20;;
67819;SDS011;54618;52.018;5.576;2023-03-12T04:39:01;2.35;;;1.30;;
67819;SDS011;54618;52.018;5.576;2023-03-12T04:41:31;2.72;;;1.20;;
67819;SDS011;54618;52.018;5.576;2023-03-12T04:44:00;2.20;;;1.30;;
67819;SDS011;54618;52.018;5.576;2023-03-12T04:46:27;2.40;;;1.20;;
67819;SDS011;54618;52.018;5.576;2023-03-12T04:48:52;2.10;;;1.23;;
67819;SDS011;54618;52.018;5.576;2023-03-12T04:51:18;2.75;;;1.40;;
67819;SDS011;54618;52.018;5.576;2023-03-12T04:53:44;2.75;;;1.20;;
67819;SDS011;54618;52.018;5.576;2023-03-12T04:56:10;2.88;;;1.20;;
67819;SDS011;54618;52.018;5.576;2023-03-12T04:58:36;1.98;;;1.25;;
67819;SDS011;54618;52.018;5.576;2023-03-12T05:01:02;1.35;;;0.93;;
67819;SDS011;54618;52.018;5.576;2023-03-12T05:03:29;2.35;;;1.30;;
67819;SDS011;54618;52.018;5.576;2023-03-12T05:05:55;2.53;;;1.30;;
67819;SDS011;54618;52.018;5.576;2023-03-12T05:08:20;2.67;;;1.27;;
67819;SDS011;54618;52.018;5.576;2023-03-12T05:10:46;2.63;;;1.20;;
67819;SDS011;54618;52.018;5.576;2023-03-12T05:13:12;2.33;;;1.20;;
67819;SDS011;54618;52.018;5.576;2023-03-12T05:15:39;2.90;;;0.95;;
67819;SDS011;54618;52.018;5.576;2023-03-12T05:18:05;1.98;;;1.17;;
67819;SDS011;54618;52.018;5.576;2023-03-12T05:20:30;2.13;;;1.02;;
67819;SDS011;54618;52.018;5.576;2023-03-12T05:22:56;1.73;;;1.00;;
67819;SDS011;54618;52.018;5.576;2023-03-12T05:25:21;2.33;;;1.08;;
67819;SDS011;54618;52.018;5.576;2023-03-12T05:27:47;1.90;;;1.05;;
67819;SDS011;54618;52.018;5.576;2023-03-12T05:30:12;2.30;;;1.20;;
67819;SDS011;54618;52.018;5.576;2023-03-12T05:32:38;2.47;;;1.25;;
67819;SDS011;54618;52.018;5.576;2023-03-12T05:35:04;2.67;;;1.10;;
67819;SDS011;54618;52.018;5.576;2023-03-12T05:37:30;2.58;;;1.30;;
67819;SDS011;54618;52.018;5.576;2023-03-12T05:39:55;2.38;;;1.00;;
67819;SDS011;54618;52.018;5.576;2023-03-12T05:42:22;2.10;;;0.95;;
67819;SDS011;54618;52.018;5.576;2023-03-12T05:44:49;2.67;;;1.10;;
67819;SDS011;54618;52.018;5.576;2023-03-12T05:47:15;2.15;;;1.20;;
67819;SDS011;54618;52.018;5.576;2023-03-12T05:49:41;2.20;;;1.10;;
67819;SDS011;54618;52.018;5.576;2023-03-12T05:52:08;2.45;;;1.25;;
67819;SDS011;54618;52.018;5.576;2023-03-12T05:54:34;2.65;;;1.20;;
67819;SDS011;54618;52.018;5.576;2023-03-12T05:57:00;2.60;;;1.30;;
67819;SDS011;54618;52.018;5.576;2023-03-12T05:59:27;2.50;;;1.20;;
67819;SDS011;54618;52.018;5.576;2023-03-12T06:01:53;1.85;;;1.00;;
67819;SDS011;54618;52.018;5.576;2023-03-12T06:04:19;2.85;;;1.20;;
67819;SDS011;54618;52.018;5.576;2023-03-12T06:06:45;2.13;;;1.08;;
67819;SDS011;54618;52.018;5.576;2023-03-12T06:09:10;2.17;;;1.20;;
67819;SDS011;54618;52.018;5.576;2023-03-12T06:11:36;2.55;;;1.17;;
67819;SDS011;54618;52.018;5.576;2023-03-12T06:14:02;2.60;;;1.30;;
67819;SDS011;54618;52.018;5.576;2023-03-12T06:16:28;2.55;;;1.33;;
67819;SDS011;54618;52.018;5.576;2023-03-12T06:18:55;2.65;;;1.20;;
67819;SDS011;54618;52.018;5.576;2023-03-12T06:21:23;3.33;;;1.20;;
67819;SDS011;54618;52.018;5.576;2023-03-12T06:23:51;3.80;;;1.35;;
67819;SDS011;54618;52.018;5.576;2023-03-12T06:26:17;2.75;;;1.60;;
67819;SDS011;54618;52.018;5.576;2023-03-12T06:28:44;6.05;;;1.10;;
67819;SDS011;54618;52.018;5.576;2023-03-12T06:31:11;3.10;;;1.30;;
67819;SDS011;54618;52.018;5.576;2023-03-12T06:33:37;2.58;;;1.15;;
67819;SDS011;54618;52.018;5.576;2023-03-12T06:36:04;2.95;;;1.20;;
67819;SDS011;54618;52.018;5.576;2023-03-12T06:38:31;2.10;;;1.08;;
67819;SDS011;54618;52.018;5.576;2023-03-12T06:40:58;1.92;;;1.02;;
67819;SDS011;54618;52.018;5.576;2023-03-12T06:43:24;2.40;;;1.20;;
67819;SDS011;54618;52.018;5.576;2023-03-12T06:45:52;1.90;;;1.00;;
67819;SDS011;54618;52.018;5.576;2023-03-12T06:48:19;2.58;;;1.48;;
67819;SDS011;54618;52.018;5.576;2023-03-12T06:50:45;2.90;;;1.10;;
67819;SDS011;54618;52.018;5.576;2023-03-12T06:53:10;2.70;;;1.05;;
67819;SDS011;54618;52.018;5.576;2023-03-12T06:55:36;2.33;;;1.10;;
67819;SDS011;54618;52.018;5.576;2023-03-12T06:58:02;1.98;;;1.00;;
67819;SDS011;54618;52.018;5.576;2023-03-12T07:00:28;2.55;;;1.10;;
67819;SDS011;54618;52.018;5.576;2023-03-12T07:02:54;2.55;;;1.13;;
67819;SDS011;54618;52.018;5.576;2023-03-12T07:05:21;2.33;;;0.93;;
67819;SDS011;54618;52.018;5.576;2023-03-12T07:07:47;2.28;;;1.05;;
67819;SDS011;54618;52.018;5.576;2023-03-12T07:10:13;2.50;;;1.00;;
67819;SDS011;54618;52.018;5.576;2023-03-12T07:12:38;2.17;;;1.10;;
67819;SDS011;54618;52.018;5.576;2023-03-12T07:15:04;1.33;;;0.80;;
67819;SDS011;54618;52.018;5.576;2023-03-12T07:17:30;2.13;;;1.00;;
67819;SDS011;54618;52.018;5.576;2023-03-12T07:19:56;2.10;;;1.08;;
67819;SDS011;54618;52.018;5.576;2023-03-12T07:22:21;1.60;;;1.10;;
67819;SDS011;54618;52.018;5.576;2023-03-12T07:24:47;2.25;;;1.02;;
67819;SDS011;54618;52.018;5.576;2023-03-12T07:27:13;1.77;;;0.98;;
67819;SDS011;54618;52.018;5.576;2023-03-12T07:29:38;1.63;;;0.95;;
67819;SDS011;54618;52.018;5.576;2023-03-12T07:32:04;1.38;;;0.80;;
67819;SDS011;54618;52.018;5.576;2023-03-12T07:34:30;2.88;;;0.90;;
67819;SDS011;54618;52.018;5.576;2023-03-12T07:36:55;1.90;;;1.00;;
67819;SDS011;54618;52.018;5.576;2023-03-12T07:39:21;2.35;;;1.05;;
67819;SDS011;54618;52.018;5.576;2023-03-12T07:41:46;1.63;;;1.00;;
67819;SDS011;54618;52.018;5.576;2023-03-12T07:44:12;2.47;;;1.10;;
67819;SDS011;54618;52.018;5.576;2023-03-12T07:46:37;2.38;;;1.05;;
67819;SDS011;54618;52.018;5.576;2023-03-12T07:49:04;2.40;;;1.00;;
67819;SDS011;54618;52.018;5.576;2023-03-12T07:51:29;2.17;;;0.90;;
67819;SDS011;54618;52.018;5.576;2023-03-12T07:53:55;2.15;;;0.95;;
67819;SDS011;54618;52.018;5.576;2023-03-12T07:56:21;2.03;;;1.00;;
67819;SDS011;54618;52.018;5.576;2023-03-12T07:58:46;3.67;;;1.25;;
67819;SDS011;54618;52.018;5.576;2023-03-12T08:01:12;2.67;;;1.02;;
67819;SDS011;54618;52.018;5.576;2023-03-12T08:03:38;3.05;;;1.17;;
67819;SDS011;54618;52.018;5.576;2023-03-12T08:06:05;1.70;;;0.82;;
67819;SDS011;54618;52.018;5.576;2023-03-12T08:08:31;1.67;;;0.90;;
67819;SDS011;54618;52.018;5.576;2023-03-12T08:10:57;2.28;;;1.10;;
67819;SDS011;54618;52.018;5.576;2023-03-12T08:13:24;1.90;;;1.00;;
67819;SDS011;54618;52.018;5.576;2023-03-12T08:15:50;2.72;;;1.10;;
67819;SDS011;54618;52.018;5.576;2023-03-12T08:18:17;1.70;;;0.90;;
67819;SDS011;54618;52.018;5.576;2023-03-12T08:20:43;1.55;;;0.80;;
67819;SDS011;54618;52.018;5.576;2023-03-12T08:23:09;2.70;;;0.93;;
67819;SDS011;54618;52.018;5.576;2023-03-12T08:25:35;1.45;;;0.80;;
67819;SDS011;54618;52.018;5.576;2023-03-12T08:28:02;1.65;;;0.88;;
67819;SDS011;54618;52.018;5.576;2023-03-12T08:30:29;2.40;;;0.90;;
67819;SDS011;54618;52.018;5.576;2023-03-12T08:32:55;1.70;;;0.80;;
67819;SDS011;54618;52.018;5.576;2023-03-12T08:35:21;1.80;;;0.93;;
67819;SDS011;54618;52.018;5.576;2023-03-12T08:37:46;1.90;;;0.82;;
67819;SDS011;54618;52.018;5.576;2023-03-12T08:40:12;1.75;;;0.90;;
67819;SDS011;54618;52.018;5.576;2023-03-12T08:42:38;1.80;;;0.90;;
67819;SDS011;54618;52.018;5.576;2023-03-12T08:45:05;1.60;;;0.90;;
67819;SDS011;54618;52.018;5.576;2023-03-12T08:47:31;1.73;;;0.90;;
67819;SDS011;54618;52.018;5.576;2023-03-12T08:49:57;2.22;;;0.90;;
67819;SDS011;54618;52.018;5.576;2023-03-12T08:52:22;1.95;;;0.98;;
67819;SDS011;54618;52.018;5.576;2023-03-12T08:54:48;1.60;;;0.90;;
67819;SDS011;54618;52.018;5.576;2023-03-12T08:57:14;1.38;;;0.70;;
67819;SDS011;54618;52.018;5.576;2023-03-12T08:59:40;1.42;;;0.90;;
67819;SDS011;54618;52.018;5.576;2023-03-12T09:02:05;1.75;;;0.80;;
67819;SDS011;54618;52.018;5.576;2023-03-12T09:04:31;3.05;;;1.00;;
67819;SDS011;54618;52.018;5.576;2023-03-12T09:06:57;1.73;;;0.90;;
67819;SDS011;54618;52.018;5.576;2023-03-12T09:09:25;1.63;;;0.80;;
67819;SDS011;54618;52.018;5.576;2023-03-12T09:11:50;2.22;;;0.90;;
67819;SDS011;54618;52.018;5.576;2023-03-12T09:14:16;2.10;;;1.00;;
67819;SDS011;54618;52.018;5.576;2023-03-12T09:16:41;1.80;;;0.70;;
67819;SDS011;54618;52.018;5.576;2023-03-12T09:19:07;1.52;;;0.77;;
67819;SDS011;54618;52.018;5.576;2023-03-12T09:21:32;1.83;;;0.88;;
67819;SDS011;54618;52.018;5.576;2023-03-12T09:23:58;1.92;;;0.90;;
67819;SDS011;54618;52.018;5.576;2023-03-12T09:26:24;1.63;;;0.80;;
67819;SDS011;54618;52.018;5.576;2023-03-12T09:28:49;1.65;;;0.73;;
67819;SDS011;54618;52.018;5.576;2023-03-12T09:31:15;1.92;;;0.90;;
67819;SDS011;54618;52.018;5.576;2023-03-12T09:33:40;1.65;;;0.80;;
67819;SDS011;54618;52.018;5.576;2023-03-12T09:36:06;1.75;;;0.80;;
67819;SDS011;54618;52.018;5.576;2023-03-12T09:38:32;1.88;;;1.00;;
67819;SDS011;54618;52.018;5.576;2023-03-12T09:40:59;2.38;;;0.85;;
67819;SDS011;54618;52.018;5.576;2023-03-12T09:43:37;1.25;;;0.70;;
67819;SDS011;54618;52.018;5.576;2023-03-12T09:46:12;1.35;;;0.75;;
67819;SDS011;54618;52.018;5.576;2023-03-12T09:48:41;2.28;;;0.80;;
67819;SDS011;54618;52.018;5.576;2023-03-12T09:51:12;1.77;;;0.88;;
67819;SDS011;54618;52.018;5.576;2023-03-12T09:53:48;1.60;;;0.80;;
67819;SDS011;54618;52.018;5.576;2023-03-12T09:56:18;1.17;;;0.80;;
67819;SDS011;54618;52.018;5.576;2023-03-12T09:58:45;1.30;;;0.80;;
67819;SDS011;54618;52.018;5.576;2023-03-12T10:12:18;1.60;;;0.80;;
67819;SDS011;54618;52.018;5.576;2023-03-12T10:18:01;2.13;;;0.80;;
67819;SDS011;54618;52.018;5.576;2023-03-12T10:20:52;1.60;;;0.75;;
67819;SDS011;54618;52.018;5.576;2023-03-12T10:26:18;1.40;;;0.75;;
67819;SDS011;54618;52.018;5.576;2023-03-12T10:28:48;2.85;;;0.98;;
67819;SDS011;54618;52.018;5.576;2023-03-12T10:40:16;1.65;;;0.85;;
67819;SDS011;54618;52.018;5.576;2023-03-12T10:42:43;2.58;;;1.00;;
67819;SDS011;54618;52.018;5.576;2023-03-12T10:47:36;1.08;;;0.63;;
67819;SDS011;54618;52.018;5.576;2023-03-12T10:52:42;1.73;;;0.90;;
67819;SDS011;54618;52.018;5.576;2023-03-12T10:55:12;1.35;;;0.80;;
67819;SDS011;54618;52.018;5.576;2023-03-12T10:57:45;1.95;;;0.90;;
67819;SDS011;54618;52.018;5.576;2023-03-12T11:00:24;1.60;;;0.90;;
67819;SDS011;54618;52.018;5.576;2023-03-12T11:02:55;2.17;;;0.98;;
67819;SDS011;54618;52.018;5.576;2023-03-12T11:05:49;1.90;;;1.00;;
67819;SDS011;54618;52.018;5.576;2023-03-12T11:08:24;2.53;;;0.80;;
67819;SDS011;54618;52.018;5.576;2023-03-12T11:10:52;1.23;;;0.80;;
67819;SDS011;54618;52.018;5.576;2023-03-12T11:15:56;1.90;;;0.90;;
67819;SDS011;54618;52.018;5.576;2023-03-12T11:18:27;1.83;;;0.98;;
67819;SDS011;54618;52.018;5.576;2023-03-12T11:23:36;1.85;;;1.10;;
67819;SDS011;54618;52.018;5.576;2023-03-12T11:26:13;1.60;;;0.90;;
67819;SDS011;54618;52.018;5.576;2023-03-12T11:29:08;1.33;;;0.80;;
67819;SDS011;54618;52.018;5.576;2023-03-12T11:31:57;1.85;;;0.90;;
67819;SDS011;54618;52.018;5.576;2023-03-12T11:34:28;3.03;;;1.20;;
67819;SDS011;54618;52.018;5.576;2023-03-12T11:42:27;2.33;;;1.00;;
67819;SDS011;54618;52.018;5.576;2023-03-12T11:45:21;2.08;;;1.02;;
67819;SDS011;54618;52.018;5.576;2023-03-12T11:48:09;1.75;;;0.98;;
67819;SDS011;54618;52.018;5.576;2023-03-12T11:56:35;2.45;;;0.88;;
67819;SDS011;54618;52.018;5.576;2023-03-12T12:07:18;2.20;;;0.95;;
67819;SDS011;54618;52.018;5.576;2023-03-12T12:10:06;2.88;;;1.25;;
67819;SDS011;54618;52.018;5.576;2023-03-12T12:18:48;1.98;;;1.00;;
67819;SDS011;54618;52.018;5.576;2023-03-12T12:21:43;2.65;;;1.10;;
67819;SDS011;54618;52.018;5.576;2023-03-12T12:27:08;2.28;;;1.00;;
67819;SDS011;54618;52.018;5.576;2023-03-12T12:35:46;2.75;;;1.00;;
67819;SDS011;54618;52.018;5.576;2023-03-12T12:38:17;2.60;;;1.00;;
67819;SDS011;54618;52.018;5.576;2023-03-12T12:41:03;6.35;;;1.40;;
67819;SDS011;54618;52.018;5.576;2023-03-12T12:43:39;5.63;;;1.15;;
67819;SDS011;54618;52.018;5.576;2023-03-12T12:48:36;2.60;;;1.10;;
67819;SDS011;54618;52.018;5.576;2023-03-12T12:51:06;2.63;;;1.05;;
67819;SDS011;54618;52.018;5.576;2023-03-12T12:53:45;3.05;;;1.10;;
67819;SDS011;54618;52.018;5.576;2023-03-12T13:01:45;3.17;;;1.20;;
67819;SDS011;54618;52.018;5.576;2023-03-12T13:04:14;2.55;;;1.10;;
67819;SDS011;54618;52.018;5.576;2023-03-12T13:07:00;3.58;;;1.30;;
67819;SDS011;54618;52.018;5.576;2023-03-12T13:14:56;2.80;;;1.10;;
67819;SDS011;54618;52.018;5.576;2023-03-12T13:17:33;3.13;;;1.20;;
67819;SDS011;54618;52.018;5.576;2023-03-12T13:20:18;5.18;;;1.52;;
67819;SDS011;54618;52.018;5.576;2023-03-12T13:25:46;3.53;;;1.48;;
67819;SDS011;54618;52.018;5.576;2023-03-12T13:36:31;2.90;;;1.10;;
67819;SDS011;54618;52.018;5.576;2023-03-12T13:47:02;4.07;;;1.35;;
67819;SDS011;54618;52.018;5.576;2023-03-12T13:49:35;2.17;;;0.95;;
67819;SDS011;54618;52.018;5.576;2023-03-12T13:55:01;3.60;;;1.40;;
67819;SDS011;54618;52.018;5.576;2023-03-12T13:57:46;4.18;;;1.38;;
67819;SDS011;54618;52.018;5.576;2023-03-12T14:05:51;4.68;;;1.38;;
67819;SDS011;54618;52.018;5.576;2023-03-12T14:13:36;3.72;;;1.40;;
67819;SDS011;54618;52.018;5.576;2023-03-12T14:19:05;3.38;;;1.30;;
67819;SDS011;54618;52.018;5.576;2023-03-12T14:21:36;4.18;;;1.05;;
67819;SDS011;54618;52.018;5.576;2023-03-12T14:24:04;3.70;;;1.40;;
67819;SDS011;54618;52.018;5.576;2023-03-12T14:26:32;3.53;;;0.95;;
67819;SDS011;54618;52.018;5.576;2023-03-12T14:29:01;2.97;;;1.27;;
67819;SDS011;54618;52.018;5.576;2023-03-12T14:31:35;4.13;;;1.10;;
67819;SDS011;54618;52.018;5.576;2023-03-12T14:41:59;4.00;;;1.33;;
67819;SDS011;54618;52.018;5.576;2023-03-12T14:44:29;3.72;;;1.30;;
67819;SDS011;54618;52.018;5.576;2023-03-12T14:46:56;4.20;;;1.40;;
67819;SDS011;54618;52.018;5.576;2023-03-12T14:49:24;3.25;;;1.20;;
67819;SDS011;54618;52.018;5.576;2023-03-12T14:51:51;5.03;;;1.40;;
67819;SDS011;54618;52.018;5.576;2023-03-12T14:54:17;3.58;;;1.30;;
67819;SDS011;54618;52.018;5.576;2023-03-12T14:56:44;3.65;;;1.27;;
67819;SDS011;54618;52.018;5.576;2023-03-12T14:59:20;4.57;;;1.50;;
67819;SDS011;54618;52.018;5.576;2023-03-12T15:01:48;3.53;;;1.20;;
67819;SDS011;54618;52.018;5.576;2023-03-12T15:04:18;4.50;;;1.35;;
67819;SDS011;54618;52.018;5.576;2023-03-12T15:06:47;3.85;;;1.40;;
67819;SDS011;54618;52.018;5.576;2023-03-12T15:09:18;4.00;;;1.40;;
67819;SDS011;54618;52.018;5.576;2023-03-12T15:11:50;4.60;;;1.25;;
67819;SDS011;54618;52.018;5.576;2023-03-12T15:14:18;3.83;;;1.27;;
67819;SDS011;54618;52.018;5.576;2023-03-12T15:16:45;4.25;;;1.20;;
67819;SDS011;54618;52.018;5.576;2023-03-12T15:19:12;3.90;;;1.33;;
67819;SDS011;54618;52.018;5.576;2023-03-12T15:21:40;3.42;;;1.20;;
67819;SDS011;54618;52.018;5.576;2023-03-12T15:24:06;3.53;;;1.17;;
67819;SDS011;54618;52.018;5.576;2023-03-12T15:26:34;3.83;;;1.20;;
67819;SDS011;54618;52.018;5.576;2023-03-12T15:29:03;3.65;;;1.23;;
67819;SDS011;54618;52.018;5.576;2023-03-12T15:31:54;5.60;;;1.50;;
67819;SDS011;54618;52.018;5.576;2023-03-12T15:36:52;3.83;;;1.17;;
67819;SDS011;54618;52.018;5.576;2023-03-12T15:39:21;4.05;;;1.20;;
67819;SDS011;54618;52.018;5.576;2023-03-12T15:41:59;5.72;;;1.40;;
67819;SDS011;54618;52.018;5.576;2023-03-12T15:44:34;4.07;;;1.25;;
67819;SDS011;54618;52.018;5.576;2023-03-12T15:47:14;4.67;;;1.73;;
67819;SDS011;54618;52.018;5.576;2023-03-12T15:49:42;3.55;;;1.30;;
67819;SDS011;54618;52.018;5.576;2023-03-12T15:57:27;6.82;;;1.85;;
67819;SDS011;54618;52.018;5.576;2023-03-12T16:05:17;5.40;;;1.58;;
67819;SDS011;54618;52.018;5.576;2023-03-12T16:08:09;8.85;;;1.70;;
67819;SDS011;54618;52.018;5.576;2023-03-12T16:10:37;6.55;;;1.33;;
67819;SDS011;54618;52.018;5.576;2023-03-12T16:13:03;6.43;;;1.75;;
67819;SDS011;54618;52.018;5.576;2023-03-12T16:15:30;7.95;;;1.48;;
67819;SDS011;54618;52.018;5.576;2023-03-12T16:17:58;6.22;;;2.13;;
67819;SDS011;54618;52.018;5.576;2023-03-12T16:20:23;4.03;;;1.42;;
67819;SDS011;54618;52.018;5.576;2023-03-12T16:22:50;6.78;;;1.77;;
67819;SDS011;54618;52.018;5.576;2023-03-12T16:25:15;6.60;;;2.00;;
67819;SDS011;54618;52.018;5.576;2023-03-12T16:27:45;6.25;;;1.80;;
67819;SDS011;54618;52.018;5.576;2023-03-12T16:30:25;6.43;;;1.50;;
67819;SDS011;54618;52.018;5.576;2023-03-12T16:32:55;7.38;;;1.80;;
67819;SDS011;54618;52.018;5.576;2023-03-12T16:35:22;8.88;;;2.00;;
67819;SDS011;54618;52.018;5.576;2023-03-12T16:37:48;7.45;;;1.55;;
67819;SDS011;54618;52.018;5.576;2023-03-12T16:40:15;6.53;;;1.88;;
67819;SDS011;54618;52.018;5.576;2023-03-12T16:42:45;6.97;;;2.00;;
67819;SDS011;54618;52.018;5.576;2023-03-12T16:45:14;9.32;;;1.95;;
67819;SDS011;54618;52.018;5.576;2023-03-12T16:47:40;7.78;;;2.00;;
67819;SDS011;54618;52.018;5.576;2023-03-12T16:50:09;8.93;;;1.80;;
67819;SDS011;54618;52.018;5.576;2023-03-12T16:52:42;6.80;;;1.60;;
67819;SDS011;54618;52.018;5.576;2023-03-12T16:55:10;7.53;;;1.77;;
67819;SDS011;54618;52.018;5.576;2023-03-12T16:57:37;5.32;;;1.65;;
67819;SDS011;54618;52.018;5.576;2023-03-12T17:00:10;6.05;;;1.88;;
67819;SDS011;54618;52.018;5.576;2023-03-12T17:02:42;7.30;;;1.70;;
67819;SDS011;54618;52.018;5.576;2023-03-12T17:05:08;12.30;;;2.72;;
67819;SDS011;54618;52.018;5.576;2023-03-12T17:07:35;9.27;;;2.53;;
67819;SDS011;54618;52.018;5.576;2023-03-12T17:10:01;9.98;;;2.53;;
67819;SDS011;54618;52.018;5.576;2023-03-12T17:12:28;7.90;;;2.20;;
67819;SDS011;54618;52.018;5.576;2023-03-12T17:14:56;8.18;;;2.35;;
67819;SDS011;54618;52.018;5.576;2023-03-12T17:17:22;12.65;;;2.90;;
67819;SDS011;54618;52.018;5.576;2023-03-12T17:19:48;9.20;;;2.30;;
67819;SDS011;54618;52.018;5.576;2023-03-12T17:22:15;8.10;;;2.40;;
67819;SDS011;54618;52.018;5.576;2023-03-12T17:24:42;8.43;;;2.03;;
67819;SDS011;54618;52.018;5.576;2023-03-12T17:27:08;23.15;;;9.52;;
67819;SDS011;54618;52.018;5.576;2023-03-12T17:29:35;34.38;;;16.70;;
67819;SDS011;54618;52.018;5.576;2023-03-12T17:32:01;30.13;;;14.70;;